createdAt,value
2022-08-22T00:00:54.545Z,99.90
2022-08-22T00:02:49.028Z,99.90
2022-08-22T00:03:07.258Z,99.90
2022-08-22T00:03:15.268Z,99.90
2022-08-22T00:03:33.923Z,99.90
2022-08-22T00:06:14.232Z,99.90
2022-08-22T00:08:50.860Z,99.90
2022-08-22T00:11:30.115Z,99.90
2022-08-22T00:14:03.560Z,99.90
2022-08-22T00:16:39.358Z,99.90
2022-08-22T00:19:17.856Z,99.90
2022-08-22T00:21:54.344Z,99.90
2022-08-22T00:24:29.913Z,99.90
2022-08-22T00:27:02.913Z,99.90
2022-08-22T00:29:36.106Z,99.90
2022-08-22T00:32:12.737Z,99.90
2022-08-22T00:34:49.079Z,99.90
2022-08-22T00:37:24.457Z,99.90
2022-08-22T00:39:56.977Z,99.90
2022-08-22T00:42:53.167Z,99.90
2022-08-22T00:45:58.364Z,99.90
2022-08-22T00:48:54.679Z,99.90
2022-08-22T00:52:14.350Z,99.90
2022-08-22T00:55:04.718Z,99.90
2022-08-22T00:58:06.530Z,99.90
2022-08-22T01:00:43.031Z,99.90
2022-08-22T01:03:45.934Z,99.90
2022-08-22T01:06:24.910Z,99.90
2022-08-22T01:09:03.768Z,99.90
2022-08-22T01:12:06.365Z,99.90
2022-08-22T01:14:44.062Z,99.90
2022-08-22T01:17:51.653Z,99.90
2022-08-22T01:20:55.440Z,99.90
2022-08-22T01:24:00.588Z,99.90
2022-08-22T01:27:07.637Z,99.90
2022-08-22T01:30:11.286Z,99.90
2022-08-22T01:33:38.025Z,99.90
2022-08-22T01:36:34.767Z,99.90
2022-08-22T01:39:33.760Z,99.90
2022-08-22T01:42:26.209Z,99.90
2022-08-22T01:45:31.685Z,99.90
2022-08-22T01:48:07.313Z,99.90
2022-08-22T01:50:42.733Z,99.90
2022-08-22T01:53:18.556Z,99.90
2022-08-22T01:55:54.042Z,99.90
2022-08-22T01:58:25.023Z,99.90
2022-08-22T02:01:14.005Z,99.90
2022-08-22T02:03:53.989Z,99.90
2022-08-22T02:06:33.190Z,99.90
2022-08-22T02:09:07.389Z,99.90
2022-08-22T02:11:41.647Z,99.90
2022-08-22T02:14:22.061Z,99.90
2022-08-22T02:16:54.562Z,99.90
2022-08-22T02:19:32.178Z,99.90
2022-08-22T02:22:06.895Z,99.90
2022-08-22T02:24:50.593Z,99.90
2022-08-22T02:27:27.161Z,99.90
2022-08-22T02:30:05.623Z,99.90
2022-08-22T02:32:44.863Z,99.90
2022-08-22T02:35:31.038Z,99.90
2022-08-22T02:38:16.734Z,99.90
2022-08-22T02:40:54.360Z,99.90
2022-08-22T02:43:25.143Z,99.90
2022-08-22T02:45:56.894Z,99.90
2022-08-22T02:48:40.325Z,99.90
2022-08-22T02:51:15.583Z,99.90
2022-08-22T02:53:54.280Z,99.90
2022-08-22T02:56:31.511Z,99.90
2022-08-22T02:59:13.342Z,99.90
2022-08-22T03:01:43.701Z,99.90
2022-08-22T03:04:46.588Z,99.90
2022-08-22T03:07:26.714Z,99.90
2022-08-22T03:10:02.186Z,99.90
2022-08-22T03:12:40.000Z,99.90
2022-08-22T03:15:14.370Z,99.90
2022-08-22T03:17:51.952Z,99.90
2022-08-22T03:20:36.484Z,99.90
2022-08-22T03:23:10.304Z,99.90
2022-08-22T03:25:42.638Z,99.90
2022-08-22T03:28:16.578Z,99.90
2022-08-22T03:30:56.927Z,99.90
2022-08-22T03:33:27.334Z,99.90
2022-08-22T03:36:07.928Z,99.90
2022-08-22T03:38:52.537Z,99.90
2022-08-22T03:42:00.998Z,99.90
2022-08-22T03:45:01.836Z,99.90
2022-08-22T03:47:47.265Z,99.90
2022-08-22T03:50:54.913Z,99.90
2022-08-22T03:54:02.053Z,99.90
2022-08-22T03:57:18.046Z,99.90
2022-08-22T04:00:12.712Z,99.90
2022-08-22T04:03:04.860Z,99.90
2022-08-22T04:05:53.440Z,99.90
2022-08-22T04:09:05.154Z,99.90
2022-08-22T04:12:08.672Z,99.90
2022-08-22T04:15:21.156Z,99.90
2022-08-22T04:18:06.812Z,99.90
2022-08-22T04:21:24.051Z,99.90
2022-08-22T04:24:21.112Z,99.90
2022-08-22T04:26:53.071Z,99.90
2022-08-22T04:29:26.276Z,99.90
2022-08-22T04:32:01.711Z,99.90
2022-08-22T04:34:39.930Z,99.90
2022-08-22T04:37:15.418Z,99.90
2022-08-22T04:39:49.718Z,99.90
2022-08-22T04:42:38.431Z,99.90
2022-08-22T04:45:11.530Z,99.90
2022-08-22T04:47:43.968Z,99.90
2022-08-22T04:50:25.073Z,99.90
2022-08-22T04:53:09.136Z,99.90
2022-08-22T04:55:45.707Z,99.90
2022-08-22T04:58:25.508Z,99.90
2022-08-22T05:00:58.483Z,99.90
2022-08-22T05:03:29.478Z,99.90
2022-08-22T05:06:01.785Z,99.90
2022-08-22T05:08:34.834Z,99.90
2022-08-22T05:11:05.579Z,99.90
2022-08-22T05:13:39.074Z,99.90
2022-08-22T05:16:14.805Z,99.90
2022-08-22T05:18:47.056Z,99.90
2022-08-22T05:21:18.685Z,99.90
2022-08-22T05:23:51.089Z,99.90
2022-08-22T05:26:20.267Z,99.90
2022-08-22T05:28:53.205Z,99.90
2022-08-22T05:31:26.312Z,99.90
2022-08-22T05:33:57.456Z,99.90
2022-08-22T05:36:29.519Z,99.90
2022-08-22T05:39:00.173Z,99.90
2022-08-22T05:41:31.817Z,99.90
2022-08-22T05:44:00.356Z,99.90
2022-08-22T05:46:42.047Z,99.90
2022-08-22T05:49:19.721Z,99.90
2022-08-22T05:51:58.972Z,99.90
2022-08-22T05:54:34.519Z,99.90
2022-08-22T05:57:14.985Z,99.90
2022-08-22T05:59:45.622Z,99.90
2022-08-22T06:02:20.762Z,99.90
2022-08-22T06:04:51.926Z,99.90
2022-08-22T06:07:25.364Z,99.90
2022-08-22T06:10:09.725Z,99.90
2022-08-22T06:12:41.155Z,99.90
2022-08-22T06:15:16.919Z,99.90
2022-08-22T06:17:51.621Z,99.90
2022-08-22T06:20:22.649Z,99.90
2022-08-22T06:22:55.513Z,99.90
2022-08-22T06:25:27.219Z,99.90
2022-08-22T06:27:56.695Z,99.90
2022-08-22T06:30:27.475Z,99.90
2022-08-22T06:33:01.954Z,99.90
2022-08-22T06:35:54.646Z,99.90
2022-08-22T06:38:33.564Z,99.90
2022-08-22T06:41:04.016Z,99.90
2022-08-22T06:43:39.323Z,99.90
2022-08-22T06:46:07.817Z,99.90
2022-08-22T06:48:37.055Z,99.90
2022-08-22T06:51:08.603Z,99.90
2022-08-22T06:53:48.058Z,99.90
2022-08-22T06:56:22.302Z,99.90
2022-08-22T06:58:53.781Z,99.90
2022-08-22T07:01:26.093Z,99.90
2022-08-22T07:03:56.733Z,99.90
2022-08-22T07:06:31.329Z,99.90
2022-08-22T07:09:05.676Z,99.90
2022-08-22T07:11:40.197Z,99.90
2022-08-22T07:14:11.312Z,99.90
2022-08-22T07:16:43.907Z,99.90
2022-08-22T07:19:24.533Z,99.90
2022-08-22T07:21:52.996Z,99.90
2022-08-22T07:24:25.946Z,99.90
2022-08-22T07:27:06.135Z,99.90
2022-08-22T07:29:44.143Z,99.90
2022-08-22T07:32:16.199Z,99.90
2022-08-22T07:35:07.709Z,99.90
2022-08-22T07:37:53.836Z,99.90
2022-08-22T07:40:28.525Z,99.90
2022-08-22T07:43:01.240Z,99.90
2022-08-22T07:45:36.086Z,99.90
2022-08-22T07:48:19.779Z,99.80
2022-08-22T07:51:01.593Z,97.40
2022-08-22T07:53:40.751Z,96.60
2022-08-22T07:56:15.544Z,96.10
2022-08-22T07:58:46.547Z,95.20
2022-08-22T08:01:18.786Z,95.80
2022-08-22T08:03:53.372Z,93.80
2022-08-22T08:06:24.151Z,92.20
2022-08-22T08:08:53.861Z,94.40
2022-08-22T08:11:27.391Z,92.10
2022-08-22T08:13:59.988Z,91.20
2022-08-22T08:16:31.692Z,91.60
2022-08-22T08:19:02.765Z,90.40
2022-08-22T08:21:34.647Z,90.00
2022-08-22T08:24:03.613Z,90.20
2022-08-22T08:26:36.459Z,89.70
2022-08-22T08:29:04.735Z,89.30
2022-08-22T08:31:38.000Z,90.00
2022-08-22T08:34:16.389Z,90.50
2022-08-22T08:36:50.918Z,90.90
2022-08-22T08:39:25.275Z,90.40
2022-08-22T08:42:26.633Z,91.50
2022-08-22T08:45:16.582Z,92.40
2022-08-22T08:48:15.002Z,93.10
2022-08-22T08:51:17.590Z,94.70
2022-08-22T08:54:22.110Z,95.00
2022-08-22T08:56:59.735Z,95.80
2022-08-22T08:59:44.441Z,95.50
2022-08-22T09:02:46.990Z,97.20
2022-08-22T09:05:51.938Z,97.50
2022-08-22T09:08:50.714Z,97.80
2022-08-22T09:12:10.294Z,98.30
2022-08-22T09:15:12.016Z,98.90
2022-08-22T09:18:27.036Z,99.20
2022-08-22T09:21:33.410Z,98.40
2022-08-22T09:24:45.387Z,97.60
2022-08-22T09:27:17.274Z,97.20
2022-08-22T09:29:54.724Z,97.50
2022-08-22T09:32:37.144Z,97.50
2022-08-22T09:35:12.276Z,96.30
2022-08-22T09:37:57.779Z,95.60
2022-08-22T09:40:30.505Z,95.70
2022-08-22T09:43:06.146Z,96.90
2022-08-22T09:45:51.533Z,95.80
2022-08-22T09:48:40.541Z,94.80
2022-08-22T09:51:32.286Z,94.20
2022-08-22T09:54:31.480Z,95.10
2022-08-22T09:57:08.852Z,94.50
2022-08-22T09:59:51.814Z,95.30
2022-08-22T10:02:34.417Z,95.10
2022-08-22T10:05:12.247Z,94.60
2022-08-22T10:08:01.551Z,94.60
2022-08-22T10:10:46.634Z,93.80
2022-08-22T10:13:24.625Z,93.60
2022-08-22T10:15:57.915Z,93.60
2022-08-22T10:18:36.696Z,93.90
2022-08-22T10:21:15.390Z,93.70
2022-08-22T10:23:50.030Z,93.10
2022-08-22T10:26:35.246Z,94.20
2022-08-22T10:29:17.687Z,92.90
2022-08-22T10:31:58.943Z,91.70
2022-08-22T10:34:36.319Z,92.70
2022-08-22T10:37:13.669Z,92.30
2022-08-22T10:39:47.787Z,93.00
2022-08-22T10:42:28.246Z,92.40
2022-08-22T10:45:35.489Z,92.80
2022-08-22T10:48:34.552Z,92.40
2022-08-22T10:51:15.044Z,91.20
2022-08-22T10:54:09.698Z,93.00
2022-08-22T10:56:43.938Z,93.30
2022-08-22T10:59:29.202Z,93.30
2022-08-22T11:02:13.566Z,93.40
2022-08-22T11:05:08.904Z,93.00
2022-08-22T11:07:48.948Z,93.40
2022-08-22T11:10:27.944Z,93.20
2022-08-22T11:13:12.682Z,93.50
2022-08-22T11:15:55.975Z,93.30
2022-08-22T11:18:36.259Z,92.10
2022-08-22T11:21:09.465Z,91.80
2022-08-22T11:23:46.353Z,93.00
2022-08-22T11:26:29.306Z,92.50
2022-08-22T11:29:14.318Z,92.70
2022-08-22T11:31:52.410Z,93.00
2022-08-22T11:34:35.905Z,91.90
2022-08-22T11:37:11.585Z,90.60
2022-08-22T11:40:01.405Z,91.20
2022-08-22T11:42:34.643Z,91.40
2022-08-22T11:45:06.470Z,91.50
2022-08-22T11:47:43.701Z,91.90
2022-08-22T11:50:19.015Z,91.60
2022-08-22T11:53:01.438Z,91.70
2022-08-22T11:55:39.191Z,91.30
2022-08-22T11:58:20.122Z,92.40
2022-08-22T12:00:55.187Z,92.50
2022-08-22T12:03:41.870Z,92.50
2022-08-22T12:06:32.740Z,91.80
2022-08-22T12:09:35.755Z,90.90
2022-08-22T12:12:32.266Z,90.50
2022-08-22T12:15:09.088Z,91.00
2022-08-22T12:18:07.214Z,91.70
2022-08-22T12:21:14.387Z,90.40
2022-08-22T12:24:11.317Z,89.40
2022-08-22T12:26:57.681Z,89.80
2022-08-22T12:29:44.765Z,87.70
2022-08-22T12:32:43.760Z,88.40
2022-08-22T12:35:30.343Z,89.10
2022-08-22T12:38:28.412Z,87.10
2022-08-22T12:41:28.279Z,88.00
2022-08-22T12:44:27.307Z,86.40
2022-08-22T12:47:09.791Z,86.70
2022-08-22T12:49:52.884Z,85.80
2022-08-22T12:52:35.701Z,86.70
2022-08-22T12:55:37.747Z,84.20
2022-08-22T12:58:13.390Z,84.50
2022-08-22T13:00:45.185Z,83.80
2022-08-22T13:03:24.136Z,86.30
2022-08-22T13:05:57.019Z,85.00
2022-08-22T13:08:31.650Z,85.20
2022-08-22T13:11:02.542Z,84.00
2022-08-22T13:13:56.176Z,84.30
2022-08-22T13:16:26.578Z,82.10
2022-08-22T13:18:59.136Z,82.70
2022-08-22T13:21:31.618Z,82.10
2022-08-22T13:24:10.601Z,79.90
2022-08-22T13:26:49.011Z,79.40
2022-08-22T13:29:39.120Z,75.40
2022-08-22T13:32:17.213Z,77.30
2022-08-22T13:34:51.120Z,78.70
2022-08-22T13:37:24.625Z,78.60
2022-08-22T13:39:57.354Z,80.10
2022-08-22T13:42:30.905Z,79.50
2022-08-22T13:45:04.313Z,80.10
2022-08-22T13:47:39.354Z,79.50
2022-08-22T13:50:13.908Z,79.80
2022-08-22T13:52:52.288Z,80.00
2022-08-22T13:55:30.209Z,79.70
2022-08-22T13:58:06.877Z,79.10
2022-08-22T14:01:10.409Z,79.00
2022-08-22T14:03:48.825Z,78.80
2022-08-22T14:06:37.899Z,78.40
2022-08-22T14:09:17.602Z,75.70
2022-08-22T14:12:12.034Z,77.80
2022-08-22T14:14:42.771Z,76.70
2022-08-22T14:17:17.767Z,78.10
2022-08-22T14:19:58.544Z,78.60
2022-08-22T14:22:34.650Z,78.30
2022-08-22T14:25:07.158Z,77.10
2022-08-22T14:27:39.767Z,77.70
2022-08-22T14:30:17.037Z,78.00
2022-08-22T14:32:50.502Z,77.80
2022-08-22T14:35:35.110Z,76.10
2022-08-22T14:38:29.825Z,76.50
2022-08-22T14:41:03.574Z,72.90
2022-08-22T14:43:49.550Z,75.20
2022-08-22T14:46:26.703Z,72.80
2022-08-22T14:49:28.649Z,75.70
2022-08-22T14:52:02.527Z,75.40
2022-08-22T14:54:33.663Z,73.90
2022-08-22T14:57:04.745Z,75.80
2022-08-22T14:59:47.094Z,75.20
2022-08-22T15:02:26.196Z,74.80
2022-08-22T15:04:55.978Z,75.10
2022-08-22T15:07:26.866Z,75.80
2022-08-22T15:10:03.004Z,77.40
2022-08-22T15:12:34.095Z,75.70
2022-08-22T15:15:05.813Z,76.40
2022-08-22T15:17:43.918Z,76.80
2022-08-22T15:20:27.795Z,75.90
2022-08-22T15:22:58.274Z,75.40
2022-08-22T15:25:32.433Z,76.10
2022-08-22T15:28:07.805Z,76.30
2022-08-22T15:30:44.795Z,75.90
2022-08-22T15:33:17.136Z,76.70
2022-08-22T15:35:48.473Z,76.40
2022-08-22T15:38:32.555Z,76.30
2022-08-22T15:41:40.655Z,75.90
2022-08-22T15:44:14.915Z,76.00
2022-08-22T15:47:05.636Z,74.30
2022-08-22T15:49:50.431Z,75.10
2022-08-22T15:52:25.885Z,75.60
2022-08-22T15:55:18.499Z,75.80
2022-08-22T15:58:02.095Z,74.70
2022-08-22T16:00:34.314Z,75.00
2022-08-22T16:03:07.529Z,75.10
2022-08-22T16:05:49.010Z,74.50
2022-08-22T16:08:24.998Z,72.20
2022-08-22T16:11:12.324Z,74.40
2022-08-22T16:13:45.382Z,75.10
2022-08-22T16:16:56.454Z,73.90
2022-08-22T16:19:25.823Z,74.40
2022-08-22T16:22:17.394Z,75.20
2022-08-22T16:24:59.653Z,73.30
2022-08-22T16:27:28.969Z,73.30
2022-08-22T16:30:10.104Z,74.40
2022-08-22T16:32:40.362Z,74.20
2022-08-22T16:35:08.387Z,74.80
2022-08-22T16:37:50.002Z,74.80
2022-08-22T16:40:25.920Z,74.60
2022-08-22T16:43:12.849Z,73.80
2022-08-22T16:45:44.631Z,75.20
2022-08-22T16:48:33.367Z,75.20
2022-08-22T16:51:08.927Z,74.70
2022-08-22T16:54:06.950Z,75.20
2022-08-22T16:56:54.985Z,75.20
2022-08-22T16:59:56.228Z,75.10
2022-08-22T17:02:45.915Z,74.30
2022-08-22T17:05:30.465Z,73.20
2022-08-22T17:08:14.436Z,74.30
2022-08-22T17:10:59.743Z,75.10
2022-08-22T17:13:42.318Z,73.60
2022-08-22T17:16:32.723Z,74.50
2022-08-22T17:19:13.940Z,74.40
2022-08-22T17:21:53.580Z,74.90
2022-08-22T17:24:32.315Z,76.20
2022-08-22T17:27:09.064Z,76.90
2022-08-22T17:29:53.732Z,77.10
2022-08-22T17:32:30.219Z,77.40
2022-08-22T17:35:06.905Z,77.40
2022-08-22T17:37:56.025Z,78.10
2022-08-22T17:40:33.974Z,77.70
2022-08-22T17:43:23.864Z,78.20
2022-08-22T17:46:19.577Z,77.90
2022-08-22T17:48:54.627Z,78.40
2022-08-22T17:51:29.340Z,78.70
2022-08-22T17:54:05.574Z,78.40
2022-08-22T17:56:39.668Z,78.50
2022-08-22T17:59:20.917Z,78.60
2022-08-22T18:01:54.753Z,79.00
2022-08-22T18:04:32.051Z,79.30
2022-08-22T18:07:22.512Z,79.20
2022-08-22T18:09:57.235Z,79.80
2022-08-22T18:12:34.337Z,80.40
2022-08-22T18:15:09.724Z,80.50
2022-08-22T18:17:42.437Z,80.80
2022-08-22T18:20:16.253Z,80.70
2022-08-22T18:22:50.548Z,80.70
2022-08-22T18:25:36.940Z,81.40
2022-08-22T18:28:10.038Z,81.90
2022-08-22T18:30:51.690Z,81.90
2022-08-22T18:33:28.715Z,83.00
2022-08-22T18:36:08.576Z,83.00
2022-08-22T18:38:46.407Z,83.90
2022-08-22T18:41:23.024Z,83.60
2022-08-22T18:43:55.053Z,83.70
2022-08-22T18:46:41.262Z,84.20
2022-08-22T18:49:34.757Z,86.10
2022-08-22T18:52:16.058Z,85.70
2022-08-22T18:55:06.334Z,86.50
2022-08-22T18:57:47.451Z,87.10
2022-08-22T19:00:17.783Z,87.20
2022-08-22T19:03:17.341Z,87.30
2022-08-22T19:06:10.979Z,89.30
2022-08-22T19:09:09.611Z,89.50
2022-08-22T19:11:47.877Z,90.60
2022-08-22T19:14:33.173Z,91.00
2022-08-22T19:17:19.477Z,91.90
2022-08-22T19:20:15.855Z,92.50
2022-08-22T19:22:44.470Z,93.20
2022-08-22T19:25:26.150Z,92.80
2022-08-22T19:28:23.702Z,93.80
2022-08-22T19:31:22.795Z,95.60
2022-08-22T19:34:07.224Z,96.30
2022-08-22T19:36:35.885Z,96.00
2022-08-22T19:39:09.171Z,96.50
2022-08-22T19:41:47.139Z,97.80
2022-08-22T19:44:42.107Z,98.20
2022-08-22T19:47:27.739Z,99.70
2022-08-22T19:50:05.471Z,99.60
2022-08-22T19:52:49.840Z,99.40
2022-08-22T19:55:23.974Z,99.80
2022-08-22T19:58:04.941Z,99.20
2022-08-22T20:00:53.510Z,99.70
2022-08-22T20:03:37.626Z,99.90
2022-08-22T20:06:33.752Z,99.90
2022-08-22T20:09:17.942Z,99.90
2022-08-22T20:11:53.789Z,99.90
2022-08-22T20:14:30.837Z,99.90
2022-08-22T20:17:11.746Z,99.90
2022-08-22T20:22:44.171Z,99.90
2022-08-22T20:25:43.523Z,99.90
2022-08-22T20:28:10.891Z,99.90
2022-08-22T20:30:42.486Z,99.90
2022-08-22T20:33:14.551Z,99.90
2022-08-22T20:35:51.350Z,99.90
2022-08-22T20:38:22.911Z,99.90
2022-08-22T20:41:01.209Z,99.90
2022-08-22T20:43:34.278Z,99.90
2022-08-22T20:46:12.436Z,99.90
2022-08-22T20:48:43.321Z,99.90
2022-08-22T20:51:17.448Z,99.90
2022-08-22T20:53:52.488Z,99.90
2022-08-22T20:56:32.919Z,99.90
2022-08-22T20:59:14.483Z,99.90
2022-08-22T21:01:42.884Z,99.90
2022-08-22T21:04:11.507Z,99.90
2022-08-22T21:06:40.715Z,99.90
2022-08-22T21:09:33.143Z,99.90
2022-08-22T21:12:01.939Z,99.90
2022-08-22T21:14:34.836Z,99.90
2022-08-22T21:17:18.642Z,99.90
2022-08-22T21:19:46.649Z,99.90
2022-08-22T21:22:19.382Z,99.90
2022-08-22T21:24:47.401Z,99.90
2022-08-22T21:27:24.257Z,99.90
2022-08-22T21:29:52.354Z,99.90
2022-08-22T21:32:26.338Z,99.90
2022-08-22T21:34:54.966Z,99.90
2022-08-22T21:37:36.793Z,99.90
2022-08-22T21:40:14.720Z,99.90
2022-08-22T21:42:44.917Z,99.90
2022-08-22T21:45:27.667Z,99.90
2022-08-22T21:47:56.015Z,99.90
2022-08-22T21:50:34.567Z,99.90
2022-08-22T21:53:09.163Z,99.90
2022-08-22T21:55:39.937Z,99.90
2022-08-22T21:58:12.741Z,99.90
2022-08-22T22:01:02.681Z,99.90
2022-08-22T22:03:36.907Z,99.90
2022-08-22T22:06:07.529Z,99.90
2022-08-22T22:08:36.679Z,99.90
2022-08-22T22:11:08.721Z,99.90
2022-08-22T22:13:37.280Z,99.90
2022-08-22T22:16:07.430Z,99.90
2022-08-22T22:18:37.675Z,99.90
2022-08-22T22:21:05.737Z,99.90
2022-08-22T22:23:33.648Z,99.90
2022-08-22T22:26:06.092Z,99.90
2022-08-22T22:28:35.738Z,99.90
2022-08-22T22:31:03.610Z,99.90
2022-08-22T22:33:34.342Z,99.90
2022-08-22T22:36:07.088Z,99.90
2022-08-22T22:38:35.211Z,99.90
2022-08-22T22:41:04.528Z,99.90
2022-08-22T22:43:32.809Z,99.90
2022-08-22T22:46:00.832Z,99.90
2022-08-22T22:48:29.138Z,99.90
2022-08-22T22:50:56.954Z,99.90
2022-08-22T22:53:33.762Z,99.90
2022-08-22T22:56:10.691Z,99.90
2022-08-22T22:58:39.867Z,99.90
2022-08-22T23:01:09.752Z,99.90
2022-08-22T23:03:37.716Z,99.90
2022-08-22T23:06:10.701Z,99.90
2022-08-22T23:08:38.546Z,99.90
2022-08-22T23:11:13.054Z,99.90
2022-08-22T23:13:42.909Z,99.90
2022-08-22T23:16:13.317Z,99.90
2022-08-22T23:18:41.938Z,99.90
2022-08-22T23:21:14.862Z,99.90
2022-08-22T23:23:43.249Z,99.90
2022-08-22T23:26:13.237Z,99.90
2022-08-22T23:28:41.761Z,99.90
2022-08-22T23:31:14.510Z,99.90
2022-08-22T23:33:42.743Z,99.90
2022-08-22T23:36:15.637Z,99.90
2022-08-22T23:38:44.108Z,99.90
2022-08-22T23:41:14.905Z,99.90
2022-08-22T23:43:44.813Z,99.90
2022-08-22T23:46:13.070Z,99.90
2022-08-22T23:48:41.649Z,99.90
2022-08-22T23:51:11.425Z,99.90
2022-08-22T23:53:39.779Z,99.90
2022-08-22T23:56:19.780Z,99.90
2022-08-22T23:58:49.179Z,99.90
